createdAt,value
2023-01-22T00:02:13.147Z,0.90
2023-01-22T00:04:39.800Z,0.90
2023-01-22T00:07:06.505Z,0.90
2023-01-22T00:09:33.080Z,0.90
2023-01-22T00:11:59.735Z,0.90
2023-01-22T00:14:26.536Z,0.90
2023-01-22T00:16:53.211Z,0.90
2023-01-22T00:19:19.802Z,0.90
2023-01-22T00:21:46.396Z,0.90
2023-01-22T00:24:13.305Z,0.90
2023-01-22T00:26:40.280Z,0.90
2023-01-22T00:29:06.928Z,0.90
2023-01-22T00:31:33.954Z,0.90
2023-01-22T00:34:00.620Z,0.90
2023-01-22T00:36:27.215Z,0.90
2023-01-22T00:38:53.779Z,0.90
2023-01-22T00:41:20.727Z,0.90
2023-01-22T00:43:48.039Z,0.90
2023-01-22T00:46:16.277Z,0.90
2023-01-22T00:48:45.222Z,0.90
2023-01-22T00:51:15.569Z,0.80
2023-01-22T00:53:43.775Z,0.90
2023-01-22T00:56:12.606Z,0.90
2023-01-22T00:58:39.295Z,0.90
2023-01-22T01:01:06.884Z,0.90
2023-01-22T01:03:35.361Z,0.90
2023-01-22T01:06:15.431Z,0.90
2023-01-22T01:08:43.561Z,0.90
2023-01-22T01:11:21.848Z,0.90
2023-01-22T01:13:49.691Z,0.80
2023-01-22T01:16:26.499Z,0.90
2023-01-22T01:18:53.263Z,0.90
2023-01-22T01:21:19.926Z,0.90
2023-01-22T01:23:46.919Z,0.90
2023-01-22T01:26:15.461Z,0.90
2023-01-22T01:28:43.301Z,0.90
2023-01-22T01:31:12.503Z,0.90
2023-01-22T01:33:39.750Z,0.90
2023-01-22T01:36:10.231Z,0.90
2023-01-22T01:38:37.484Z,0.90
2023-01-22T01:41:04.527Z,0.90
2023-01-22T01:43:31.548Z,0.90
2023-01-22T01:46:00.350Z,0.90
2023-01-22T01:48:31.275Z,0.90
2023-01-22T01:51:11.234Z,0.90
2023-01-22T01:53:39.538Z,0.90
2023-01-22T01:56:11.039Z,0.90
2023-01-22T01:58:39.936Z,0.90
2023-01-22T02:01:17.261Z,0.90
2023-01-22T02:03:45.113Z,0.90
2023-01-22T02:06:13.284Z,0.90
2023-01-22T02:08:42.174Z,0.80
2023-01-22T02:11:09.913Z,0.80
2023-01-22T02:13:39.696Z,0.90
2023-01-22T02:16:07.774Z,0.90
2023-01-22T02:18:34.354Z,0.90
2023-01-22T02:21:01.381Z,0.90
2023-01-22T02:23:30.193Z,0.80
2023-01-22T02:25:58.717Z,0.80
2023-01-22T02:28:25.301Z,0.90
2023-01-22T02:30:51.901Z,0.90
2023-01-22T02:33:18.567Z,0.90
2023-01-22T02:35:45.202Z,0.90
2023-01-22T02:38:11.865Z,0.90
2023-01-22T02:40:48.951Z,0.90
2023-01-22T02:43:16.359Z,0.90
2023-01-22T02:45:43.208Z,0.90
2023-01-22T02:48:09.876Z,0.80
2023-01-22T02:50:36.576Z,0.80
2023-01-22T02:53:03.261Z,0.90
2023-01-22T02:55:30.516Z,0.90
2023-01-22T02:57:57.119Z,0.80
2023-01-22T03:00:23.725Z,0.90
2023-01-22T03:02:51.384Z,0.80
2023-01-22T03:05:17.982Z,0.90
2023-01-22T03:07:47.358Z,0.90
2023-01-22T03:10:19.396Z,0.90
2023-01-22T03:13:05.478Z,0.90
2023-01-22T03:15:51.571Z,0.90
2023-01-22T03:18:36.934Z,0.90
2023-01-22T03:21:20.052Z,0.90
2023-01-22T03:23:49.020Z,0.90
2023-01-22T03:26:16.168Z,0.90
2023-01-22T03:28:43.052Z,0.90
2023-01-22T03:31:09.853Z,0.90
2023-01-22T03:33:36.506Z,0.90
2023-01-22T03:36:05.743Z,0.90
2023-01-22T03:38:32.818Z,0.90
2023-01-22T03:41:11.101Z,0.90
2023-01-22T03:43:37.892Z,0.80
2023-01-22T03:46:12.960Z,0.90
2023-01-22T03:48:40.161Z,0.80
2023-01-22T03:51:09.939Z,0.80
2023-01-22T03:53:36.959Z,0.80
2023-01-22T03:56:06.799Z,0.80
2023-01-22T03:58:34.769Z,0.80
2023-01-22T04:01:06.133Z,0.80
2023-01-22T04:03:33.278Z,0.80
2023-01-22T04:06:00.264Z,0.80
2023-01-22T04:08:32.233Z,0.80
2023-01-22T04:13:36.053Z,0.80
2023-01-22T04:16:03.479Z,0.70
2023-01-22T04:18:30.403Z,0.80
2023-01-22T04:20:57.769Z,0.80
2023-01-22T04:23:25.183Z,0.70
2023-01-22T04:25:52.576Z,0.70
2023-01-22T04:28:19.715Z,0.70
2023-01-22T04:30:49.395Z,0.70
2023-01-22T04:33:16.075Z,0.70
2023-01-22T04:35:42.674Z,0.70
2023-01-22T04:38:12.910Z,0.70
2023-01-22T04:40:39.875Z,0.70
2023-01-22T04:43:07.919Z,0.70
2023-01-22T04:45:34.545Z,0.70
2023-01-22T04:48:01.599Z,0.80
2023-01-22T04:50:31.262Z,0.70
2023-01-22T04:52:58.707Z,0.70
2023-01-22T04:55:25.969Z,0.70
2023-01-22T04:57:59.640Z,0.70
2023-01-22T05:00:27.831Z,0.80
2023-01-22T05:03:01.369Z,0.80
2023-01-22T05:05:29.130Z,0.80
2023-01-22T05:07:56.182Z,0.80
2023-01-22T05:10:22.969Z,0.70
2023-01-22T05:12:50.377Z,0.80
2023-01-22T05:15:24.184Z,0.80
2023-01-22T05:17:52.474Z,0.80
2023-01-22T05:20:19.660Z,0.80
2023-01-22T05:22:46.621Z,0.80
2023-01-22T05:25:13.575Z,0.80
2023-01-22T05:27:40.399Z,0.80
2023-01-22T05:30:07.689Z,0.80
2023-01-22T05:32:34.287Z,0.80
2023-01-22T05:35:00.897Z,0.80
2023-01-22T05:37:27.486Z,0.80
2023-01-22T05:39:54.125Z,0.80
2023-01-22T05:42:21.006Z,0.80
2023-01-22T05:44:48.028Z,0.80
2023-01-22T05:47:15.171Z,0.80
2023-01-22T05:49:42.140Z,0.80
2023-01-22T05:52:11.729Z,0.90
2023-01-22T05:54:39.894Z,0.80
2023-01-22T05:57:07.415Z,0.80
2023-01-22T05:59:34.110Z,0.80
2023-01-22T06:02:01.124Z,0.80
2023-01-22T06:04:27.855Z,0.80
2023-01-22T06:06:54.554Z,0.80
2023-01-22T06:09:21.271Z,0.80
2023-01-22T06:11:48.039Z,0.80
2023-01-22T06:14:14.707Z,0.80
2023-01-22T06:16:41.355Z,0.80
2023-01-22T06:19:08.303Z,0.90
2023-01-22T06:21:34.935Z,0.90
2023-01-22T06:24:01.544Z,0.90
2023-01-22T06:26:28.124Z,0.80
2023-01-22T06:28:55.161Z,0.90
2023-01-22T06:31:22.035Z,0.90
2023-01-22T06:33:48.962Z,0.90
2023-01-22T06:36:15.723Z,0.90
2023-01-22T06:38:42.604Z,0.90
2023-01-22T06:41:09.715Z,0.90
2023-01-22T06:43:37.573Z,0.90
2023-01-22T06:46:05.291Z,0.90
2023-01-22T06:48:32.036Z,0.90
2023-01-22T06:51:00.233Z,0.90
2023-01-22T06:53:27.311Z,0.90
2023-01-22T06:55:53.946Z,1.00
2023-01-22T06:58:20.619Z,0.90
2023-01-22T07:00:47.183Z,0.90
2023-01-22T07:03:13.768Z,0.90
2023-01-22T07:05:40.504Z,1.00
2023-01-22T07:08:07.334Z,1.00
2023-01-22T07:10:33.948Z,1.00
2023-01-22T07:13:01.460Z,1.00
2023-01-22T07:15:28.129Z,1.00
2023-01-22T07:17:55.079Z,1.00
2023-01-22T07:20:23.092Z,1.00
2023-01-22T07:22:50.788Z,1.00
2023-01-22T07:25:18.398Z,1.00
2023-01-22T07:27:45.078Z,1.00
2023-01-22T07:30:12.261Z,1.10
2023-01-22T07:32:38.940Z,1.00
2023-01-22T07:35:05.863Z,1.00
2023-01-22T07:37:32.449Z,1.10
2023-01-22T07:39:59.120Z,1.00
2023-01-22T07:42:25.714Z,1.00
2023-01-22T07:44:52.333Z,1.00
2023-01-22T07:47:19.150Z,1.00
2023-01-22T07:49:45.799Z,1.00
2023-01-22T07:52:12.482Z,1.00
2023-01-22T07:54:39.112Z,1.00
2023-01-22T07:57:05.766Z,1.00
2023-01-22T07:59:32.513Z,1.10
2023-01-22T08:02:00.652Z,1.10
2023-01-22T08:04:29.084Z,1.10
2023-01-22T08:06:55.723Z,1.10
2023-01-22T08:09:25.497Z,1.10
2023-01-22T08:11:53.098Z,1.10
2023-01-22T08:14:20.249Z,1.10
2023-01-22T08:16:47.314Z,1.10
2023-01-22T08:19:14.290Z,1.20
2023-01-22T08:21:40.877Z,1.20
2023-01-22T08:24:08.172Z,1.20
2023-01-22T08:26:34.948Z,1.20
2023-01-22T08:29:05.283Z,1.30
2023-01-22T08:31:33.230Z,1.40
2023-01-22T08:34:00.487Z,1.30
2023-01-22T08:36:27.495Z,1.40
2023-01-22T08:38:54.196Z,1.40
2023-01-22T08:41:21.358Z,1.50
2023-01-22T08:43:48.422Z,1.50
2023-01-22T08:46:15.195Z,1.50
2023-01-22T08:48:44.017Z,1.50
2023-01-22T08:51:11.788Z,1.50
2023-01-22T08:53:38.429Z,1.60
2023-01-22T08:56:08.494Z,1.60
2023-01-22T08:58:35.093Z,1.50
2023-01-22T09:01:01.723Z,1.60
2023-01-22T09:03:29.251Z,1.60
2023-01-22T09:05:57.840Z,1.60
2023-01-22T09:08:24.727Z,1.60
2023-01-22T09:10:51.337Z,1.60
2023-01-22T09:13:17.864Z,1.70
2023-01-22T09:15:44.494Z,1.70
2023-01-22T09:18:11.099Z,1.70
2023-01-22T09:20:37.665Z,1.70
2023-01-22T09:23:04.278Z,1.70
2023-01-22T09:25:31.073Z,1.70
2023-01-22T09:27:59.954Z,1.80
2023-01-22T09:30:30.611Z,1.80
2023-01-22T09:32:57.408Z,1.80
2023-01-22T09:35:24.487Z,1.80
2023-01-22T09:37:51.051Z,1.80
2023-01-22T09:40:25.989Z,1.70
2023-01-22T09:42:57.086Z,1.70
2023-01-22T09:45:25.859Z,1.90
2023-01-22T09:47:59.585Z,1.80
2023-01-22T09:50:36.007Z,1.80
2023-01-22T09:53:10.041Z,1.80
2023-01-22T09:55:46.934Z,1.90
2023-01-22T09:58:20.339Z,2.00
2023-01-22T10:01:04.549Z,2.10
2023-01-22T10:03:38.747Z,2.30
2023-01-22T10:06:13.250Z,2.40
2023-01-22T10:08:51.922Z,2.40
2023-01-22T10:11:18.766Z,2.40
2023-01-22T10:13:45.694Z,2.40
2023-01-22T10:16:13.183Z,2.40
2023-01-22T10:18:46.282Z,2.40
2023-01-22T10:21:23.625Z,2.40
2023-01-22T10:23:51.054Z,2.40
2023-01-22T10:26:29.063Z,2.50
2023-01-22T10:28:58.365Z,2.40
2023-01-22T10:31:47.844Z,2.50
2023-01-22T10:34:20.257Z,2.70
2023-01-22T10:36:52.104Z,2.60
2023-01-22T10:39:19.345Z,2.50
2023-01-22T10:41:48.012Z,2.60
2023-01-22T10:44:20.646Z,2.50
2023-01-22T10:46:49.539Z,2.60
2023-01-22T10:49:27.429Z,2.60
2023-01-22T10:51:56.552Z,2.60
2023-01-22T10:54:43.791Z,2.70
2023-01-22T10:57:33.981Z,2.70
2023-01-22T11:00:16.053Z,2.60
2023-01-22T11:02:45.844Z,2.70
2023-01-22T11:05:44.690Z,2.80
2023-01-22T11:08:19.175Z,2.90
2023-01-22T11:10:57.841Z,2.90
2023-01-22T11:14:01.958Z,2.80
2023-01-22T11:16:34.549Z,2.90
2023-01-22T11:19:04.778Z,3.10
2023-01-22T11:21:38.071Z,3.10
2023-01-22T11:24:04.818Z,3.10
2023-01-22T11:26:50.433Z,3.00
2023-01-22T11:29:39.133Z,2.90
2023-01-22T11:32:11.558Z,3.10
2023-01-22T11:35:16.782Z,3.10
2023-01-22T11:38:09.643Z,3.20
2023-01-22T11:41:16.658Z,3.20
2023-01-22T11:44:07.859Z,3.40
2023-01-22T11:46:47.195Z,3.30
2023-01-22T11:49:35.438Z,3.20
2023-01-22T11:52:37.867Z,3.10
2023-01-22T11:55:32.153Z,3.10
2023-01-22T11:58:29.070Z,3.10
2023-01-22T12:01:26.615Z,3.20
2023-01-22T12:04:30.927Z,3.20
2023-01-22T12:07:25.514Z,3.20
2023-01-22T12:10:22.240Z,3.10
2023-01-22T12:13:07.643Z,3.20
2023-01-22T12:16:30.251Z,3.10
2023-01-22T12:19:15.496Z,3.20
2023-01-22T12:22:25.608Z,3.10
2023-01-22T12:25:25.805Z,2.90
2023-01-22T12:28:08.288Z,3.00
2023-01-22T12:30:37.861Z,3.10
2023-01-22T12:33:06.764Z,3.10
2023-01-22T12:35:33.511Z,3.10
2023-01-22T12:38:12.561Z,3.10
2023-01-22T12:41:01.911Z,3.10
2023-01-22T12:43:55.639Z,3.10
2023-01-22T12:46:48.789Z,3.10
2023-01-22T12:49:20.691Z,3.00
2023-01-22T12:51:52.442Z,3.10
2023-01-22T12:54:28.414Z,3.00
2023-01-22T12:57:09.821Z,3.00
2023-01-22T12:59:36.343Z,3.00
2023-01-22T13:02:24.818Z,2.90
2023-01-22T13:04:52.740Z,3.00
2023-01-22T13:07:24.190Z,3.10
2023-01-22T13:10:19.676Z,3.10
2023-01-22T13:12:49.946Z,3.00
2023-01-22T13:15:35.729Z,2.90
2023-01-22T13:18:12.944Z,2.90
2023-01-22T13:21:08.617Z,3.00
2023-01-22T13:23:44.085Z,2.90
2023-01-22T13:26:21.290Z,2.90
2023-01-22T13:28:51.686Z,2.80
2023-01-22T13:31:18.529Z,2.80
2023-01-22T13:34:08.862Z,2.80
2023-01-22T13:36:44.402Z,2.80
2023-01-22T13:39:37.521Z,2.90
2023-01-22T13:42:05.551Z,2.90
2023-01-22T13:44:35.952Z,2.90
2023-01-22T13:47:03.337Z,2.80
2023-01-22T13:49:43.694Z,2.80
2023-01-22T13:52:16.155Z,2.80
2023-01-22T13:54:47.609Z,2.80
2023-01-22T13:57:19.591Z,2.80
2023-01-22T13:59:57.333Z,2.80
2023-01-22T14:02:29.383Z,2.80
2023-01-22T14:04:56.146Z,2.80
2023-01-22T14:07:26.871Z,2.80
2023-01-22T14:09:54.578Z,2.70
2023-01-22T14:12:24.219Z,2.80
2023-01-22T14:15:21.231Z,2.70
2023-01-22T14:17:49.845Z,2.70
2023-01-22T14:20:17.753Z,2.70
2023-01-22T14:22:44.632Z,2.70
2023-01-22T14:25:11.235Z,2.70
2023-01-22T14:27:43.989Z,2.60
2023-01-22T14:30:14.451Z,2.60
2023-01-22T14:32:42.813Z,2.60
2023-01-22T14:35:20.546Z,2.60
2023-01-22T14:37:47.733Z,2.60
2023-01-22T14:40:16.721Z,2.60
2023-01-22T14:42:43.894Z,2.60
2023-01-22T14:45:11.442Z,2.60
2023-01-22T14:47:38.127Z,2.50
2023-01-22T14:50:06.561Z,2.60
2023-01-22T14:52:34.049Z,2.50
2023-01-22T14:55:00.928Z,2.50
2023-01-22T14:57:27.541Z,2.50
2023-01-22T14:59:54.132Z,2.50
2023-01-22T15:02:20.762Z,2.50
2023-01-22T15:04:48.052Z,2.50
2023-01-22T15:07:15.044Z,2.50
2023-01-22T15:09:41.614Z,2.50
2023-01-22T15:12:08.224Z,2.40
2023-01-22T15:14:35.276Z,2.40
2023-01-22T15:17:01.927Z,2.50
2023-01-22T15:19:32.138Z,2.50
2023-01-22T15:22:03.537Z,2.50
2023-01-22T15:24:30.205Z,2.50
2023-01-22T15:26:56.810Z,2.50
2023-01-22T15:29:23.431Z,2.40
2023-01-22T15:31:50.071Z,2.40
2023-01-22T15:34:16.794Z,2.40
2023-01-22T15:36:43.359Z,2.40
2023-01-22T15:39:09.921Z,2.40
2023-01-22T15:41:37.178Z,2.40
2023-01-22T15:44:05.773Z,2.40
2023-01-22T15:46:37.493Z,2.40
2023-01-22T15:49:05.249Z,2.40
2023-01-22T15:51:32.350Z,2.30
2023-01-22T15:54:02.326Z,2.30
2023-01-22T15:56:31.777Z,2.30
2023-01-22T15:58:58.895Z,2.30
2023-01-22T16:01:26.523Z,2.30
2023-01-22T16:03:53.582Z,2.30
2023-01-22T16:06:26.042Z,2.30
2023-01-22T16:08:54.678Z,2.30
2023-01-22T16:11:22.209Z,2.30
2023-01-22T16:13:48.830Z,2.30
2023-01-22T16:16:22.561Z,2.30
2023-01-22T16:18:50.310Z,2.30
2023-01-22T16:21:18.703Z,2.20
2023-01-22T16:23:46.469Z,2.30
2023-01-22T16:26:19.010Z,2.20
2023-01-22T16:28:48.175Z,2.20
2023-01-22T16:31:21.138Z,2.20
2023-01-22T16:33:54.418Z,2.20
2023-01-22T16:36:23.752Z,2.20
2023-01-22T16:38:51.273Z,2.20
2023-01-22T16:41:27.591Z,2.20
2023-01-22T16:44:17.018Z,2.20
2023-01-22T16:49:17.854Z,2.10
2023-01-22T16:51:51.503Z,2.20
2023-01-22T16:54:29.115Z,2.20
2023-01-22T16:56:57.773Z,2.20
2023-01-22T16:59:25.153Z,2.20
2023-01-22T17:01:51.951Z,2.20
2023-01-22T17:04:18.732Z,2.20
2023-01-22T17:06:56.857Z,2.20
2023-01-22T17:09:26.272Z,2.20
2023-01-22T17:11:57.033Z,2.20
2023-01-22T17:14:26.933Z,2.10
2023-01-22T17:16:53.871Z,2.10
2023-01-22T17:19:20.630Z,2.10
2023-01-22T17:21:51.379Z,2.20
2023-01-22T17:24:18.154Z,2.10
2023-01-22T17:26:45.998Z,2.20
2023-01-22T17:29:14.421Z,2.20
2023-01-22T17:31:41.174Z,2.20
2023-01-22T17:34:10.847Z,2.20
2023-01-22T17:36:39.096Z,2.20
2023-01-22T17:39:06.338Z,2.10
2023-01-22T17:41:33.536Z,2.20
2023-01-22T17:44:00.206Z,2.20
2023-01-22T17:46:31.707Z,2.10
2023-01-22T17:49:00.947Z,2.20
2023-01-22T17:51:29.067Z,2.20
2023-01-22T17:53:57.315Z,2.20
2023-01-22T17:56:26.903Z,2.20
2023-01-22T17:58:56.295Z,2.20
2023-01-22T18:01:24.782Z,2.20
2023-01-22T18:03:51.509Z,2.20
2023-01-22T18:06:18.567Z,2.20
2023-01-22T18:08:45.274Z,2.20
2023-01-22T18:11:15.038Z,2.20
2023-01-22T18:13:41.714Z,2.20
2023-01-22T18:16:12.083Z,2.20
2023-01-22T18:18:39.419Z,2.20
2023-01-22T18:21:08.201Z,2.20
2023-01-22T18:23:34.861Z,2.20
2023-01-22T18:26:04.910Z,2.20
2023-01-22T18:28:31.999Z,2.20
2023-01-22T18:31:07.324Z,2.20
2023-01-22T18:33:37.076Z,2.20
2023-01-22T18:36:07.032Z,2.20
2023-01-22T18:38:36.405Z,2.20
2023-01-22T18:41:08.322Z,2.30
2023-01-22T18:43:34.994Z,2.30
2023-01-22T18:46:06.598Z,2.20
2023-01-22T18:48:33.583Z,2.30
2023-01-22T18:51:00.204Z,2.30
2023-01-22T18:53:27.147Z,2.40
2023-01-22T18:55:58.430Z,2.30
2023-01-22T18:58:30.312Z,2.30
2023-01-22T19:00:58.666Z,2.30
2023-01-22T19:03:26.426Z,2.30
2023-01-22T19:05:54.546Z,2.30
2023-01-22T19:08:22.785Z,2.30
2023-01-22T19:10:49.352Z,2.30
2023-01-22T19:13:16.479Z,2.20
2023-01-22T19:15:43.216Z,2.30
2023-01-22T19:18:10.095Z,2.30
2023-01-22T19:20:37.264Z,2.30
2023-01-22T19:23:04.443Z,2.20
2023-01-22T19:25:31.326Z,2.20
2023-01-22T19:27:58.074Z,2.20
2023-01-22T19:30:24.706Z,2.20
2023-01-22T19:32:55.361Z,2.20
2023-01-22T19:35:23.979Z,2.30
2023-01-22T19:37:53.415Z,2.30
2023-01-22T19:40:21.175Z,2.30
2023-01-22T19:42:48.619Z,2.20
2023-01-22T19:45:15.352Z,2.20
2023-01-22T19:47:42.072Z,2.20
2023-01-22T19:50:09.136Z,2.20
2023-01-22T19:52:35.874Z,2.20
2023-01-22T19:55:02.437Z,2.20
2023-01-22T19:57:30.079Z,2.20
2023-01-22T19:59:58.240Z,2.20
2023-01-22T20:02:25.085Z,2.20
2023-01-22T20:04:51.665Z,2.20
2023-01-22T20:07:18.302Z,2.20
2023-01-22T20:09:45.094Z,2.20
2023-01-22T20:12:11.722Z,2.20
2023-01-22T20:14:43.696Z,2.20
2023-01-22T20:17:12.861Z,2.20
2023-01-22T20:19:42.018Z,2.20
2023-01-22T20:22:10.804Z,2.20
2023-01-22T20:24:40.165Z,2.20
2023-01-22T20:27:07.790Z,2.20
2023-01-22T20:29:34.799Z,2.20
2023-01-22T20:32:01.599Z,2.20
2023-01-22T20:34:28.377Z,2.20
2023-01-22T20:36:54.993Z,2.20
2023-01-22T20:39:21.610Z,2.20
2023-01-22T20:41:48.432Z,2.20
2023-01-22T20:44:15.346Z,2.20
2023-01-22T20:46:44.263Z,2.20
2023-01-22T20:49:13.368Z,2.20
2023-01-22T20:51:41.821Z,2.20
2023-01-22T20:54:09.512Z,2.20
2023-01-22T20:56:36.693Z,2.10
2023-01-22T20:59:10.827Z,2.20
2023-01-22T21:01:37.864Z,2.20
2023-01-22T21:04:05.356Z,2.20
2023-01-22T21:06:34.515Z,2.20
2023-01-22T21:09:01.379Z,2.20
2023-01-22T21:11:33.106Z,2.20
2023-01-22T21:14:00.930Z,2.20
2023-01-22T21:16:34.038Z,2.20
2023-01-22T21:19:03.863Z,2.20
2023-01-22T21:21:31.887Z,2.20
2023-01-22T21:23:59.515Z,2.20
2023-01-22T21:26:29.647Z,2.20
2023-01-22T21:29:01.867Z,2.20
2023-01-22T21:31:29.227Z,2.10
2023-01-22T21:34:03.827Z,2.20
2023-01-22T21:36:37.091Z,2.20
2023-01-22T21:39:06.817Z,2.20
2023-01-22T21:41:34.386Z,2.20
2023-01-22T21:44:19.385Z,2.20
2023-01-22T21:46:46.605Z,2.20
2023-01-22T21:49:16.681Z,2.20
2023-01-22T21:51:54.547Z,2.20
2023-01-22T21:54:24.765Z,2.10
2023-01-22T21:56:52.139Z,2.20
2023-01-22T21:59:19.055Z,2.20
2023-01-22T22:01:46.153Z,2.20
2023-01-22T22:04:13.673Z,2.20
2023-01-22T22:06:40.461Z,2.20
2023-01-22T22:09:12.046Z,2.20
2023-01-22T22:11:39.051Z,2.20
2023-01-22T22:14:07.554Z,2.20
2023-01-22T22:16:38.443Z,2.20
2023-01-22T22:19:07.278Z,2.20
2023-01-22T22:21:40.328Z,2.20
2023-01-22T22:24:07.811Z,2.20
2023-01-22T22:26:34.419Z,2.20
2023-01-22T22:29:01.295Z,2.20
2023-01-22T22:31:27.998Z,2.20
2023-01-22T22:33:56.065Z,2.20
2023-01-22T22:36:25.631Z,2.20
2023-01-22T22:38:52.827Z,2.30
2023-01-22T22:41:27.362Z,2.30
2023-01-22T22:43:55.467Z,2.30
2023-01-22T22:46:29.095Z,2.30
2023-01-22T22:48:58.371Z,2.30
2023-01-22T22:51:33.639Z,2.30
2023-01-22T22:54:03.440Z,2.30
2023-01-22T22:56:30.688Z,2.30
2023-01-22T22:58:59.489Z,2.20
2023-01-22T23:01:27.206Z,2.20
2023-01-22T23:03:54.374Z,2.20
2023-01-22T23:06:24.177Z,2.20
2023-01-22T23:08:53.348Z,2.30
2023-01-22T23:11:22.667Z,2.20
2023-01-22T23:13:50.130Z,2.30
2023-01-22T23:16:20.397Z,2.30
2023-01-22T23:18:49.656Z,2.20
2023-01-22T23:21:20.174Z,2.20
2023-01-22T23:23:46.811Z,2.30
2023-01-22T23:26:17.423Z,2.30
2023-01-22T23:28:44.486Z,2.30
2023-01-22T23:31:14.034Z,2.30
2023-01-22T23:33:41.420Z,2.30
2023-01-22T23:36:13.232Z,2.30
2023-01-22T23:38:40.319Z,2.30
2023-01-22T23:41:09.192Z,2.30
2023-01-22T23:43:36.442Z,2.30
2023-01-22T23:46:16.278Z,2.30
2023-01-22T23:48:42.927Z,2.30
2023-01-22T23:51:11.276Z,2.30
2023-01-22T23:53:40.034Z,2.30
2023-01-22T23:56:07.893Z,2.20
2023-01-22T23:58:35.064Z,2.20
